首页
METAR-TAF:

METAR-TAF

机场 :

萨尔蒂约, 墨西哥

纬度: 25-27N, 经度: 100-59W, 海拔: 1790米

当前天气观测

该预报发布于7小时和4分钟前的02:41 UTC
风速8节,风向北转东北
温度 24°C
湿度 36%
气压 1022 hPa
能見度: 16.1公里
天空无云

METAR: MMIO 270241Z 02008KT 10SM SKC 24/08 A3018

时间: 03:45 (09:45 UTC)

预报

该预报发布于4小时和47分钟前的04:58 UTC
预报有效从27日的 06点(UTC)到 28日的 06点(UTC)
风速节,风向
能見度: 10公里
天空无云
从 27日的 1800点(UTC)
风速14节,风向北转西北
能見度: 10公里
多云层高于25000英尺
从 28日的 0500点(UTC)
风速节,风向
能見度: 10公里
散云层高于25000英尺

TAF: MMIO 270458Z 2706/2806 00000KT P6SM SKC FM271800 34014KT P6SM BKN250 FM280500 00000KT P6SM SCT250

超过4000个机场的气象观测和天气预报(METAR&TAF报告)。

可查询的气象台以黄色和红色小点在地图上表示。

将鼠标移到小点上方,可查看气象台名称。

然后点击查看天气观测和预报。

如需切换地图:点击带黑十字的绿色按钮放大地图;点击带横线的绿色按钮缩小地图;或者点击绿色箭头查看邻近地区的地图。


METAR-TAF: